createdAt,value
2022-10-20T00:00:12.305Z,13.05
2022-10-20T00:02:41.164Z,11.73
2022-10-20T00:05:10.407Z,12.57
2022-10-20T00:07:38.976Z,15.00
2022-10-20T00:10:08.617Z,15.65
2022-10-20T00:12:37.827Z,14.02
2022-10-20T00:15:07.425Z,16.73
2022-10-20T00:17:37.689Z,18.40
2022-10-20T00:20:07.752Z,16.10
2022-10-20T00:22:36.624Z,16.92
2022-10-20T00:25:06.176Z,19.88
2022-10-20T00:27:35.056Z,19.67
2022-10-20T00:30:03.917Z,17.38
2022-10-20T00:32:32.863Z,14.77
2022-10-20T00:35:03.447Z,15.18
2022-10-20T00:37:31.965Z,12.60
2022-10-20T00:40:00.787Z,12.95
2022-10-20T00:42:29.625Z,15.52
2022-10-20T00:44:59.696Z,19.55
2022-10-20T00:47:43.157Z,12.90
2022-10-20T00:50:15.620Z,18.05
2022-10-20T00:52:45.252Z,11.27
2022-10-20T00:55:16.679Z,18.85
2022-10-20T00:57:47.736Z,13.35
2022-10-20T01:00:17.327Z,17.52
2022-10-20T01:02:46.550Z,14.85
2022-10-20T01:05:17.185Z,21.17
2022-10-20T01:07:45.639Z,20.40
2022-10-20T01:10:15.127Z,16.55
2022-10-20T01:12:49.151Z,15.93
2022-10-20T01:18:02.486Z,16.77
2022-10-20T01:21:04.087Z,14.45
2022-10-20T01:23:45.063Z,18.98
2022-10-20T01:26:38.838Z,15.43
2022-10-20T01:29:13.444Z,15.50
2022-10-20T01:31:45.492Z,16.10
2022-10-20T01:34:22.261Z,16.58
2022-10-20T01:36:56.390Z,20.27
2022-10-20T01:39:30.057Z,18.23
2022-10-20T01:42:02.082Z,25.60
2022-10-20T01:44:33.198Z,17.52
2022-10-20T01:47:02.565Z,22.27
2022-10-20T01:49:30.996Z,22.83
2022-10-20T01:51:59.799Z,19.75
2022-10-20T01:54:30.013Z,27.30
2022-10-20T01:57:14.405Z,20.00
2022-10-20T01:59:50.192Z,21.77
2022-10-20T02:02:38.511Z,19.52
2022-10-20T02:05:21.670Z,15.73
2022-10-20T02:07:50.766Z,18.80
2022-10-20T02:10:24.437Z,13.30
2022-10-20T02:12:56.171Z,25.27
2022-10-20T02:15:28.422Z,20.70
2022-10-20T02:18:01.762Z,21.90
2022-10-20T02:20:31.747Z,18.38
2022-10-20T02:23:01.664Z,20.33
2022-10-20T02:25:31.491Z,18.83
2022-10-20T02:28:02.041Z,19.67
2022-10-20T02:30:32.944Z,21.92
2022-10-20T02:33:01.836Z,20.13
2022-10-20T02:35:32.651Z,21.35
2022-10-20T02:38:01.755Z,20.63
2022-10-20T02:40:30.349Z,26.67
2022-10-20T02:42:59.242Z,19.02
2022-10-20T02:45:28.051Z,18.23
2022-10-20T02:47:58.299Z,18.50
2022-10-20T02:50:27.101Z,22.13
2022-10-20T02:52:55.575Z,21.10
2022-10-20T02:55:24.610Z,18.05
2022-10-20T02:57:54.549Z,21.02
2022-10-20T03:00:24.835Z,18.90
2022-10-20T03:02:54.018Z,16.55
2022-10-20T03:05:24.278Z,19.90
2022-10-20T03:07:52.756Z,18.48
2022-10-20T03:10:21.905Z,22.42
2022-10-20T03:12:50.798Z,18.85
2022-10-20T03:15:19.934Z,21.58
2022-10-20T03:17:49.119Z,25.58
2022-10-20T03:20:18.196Z,18.58
2022-10-20T03:22:47.974Z,18.52
2022-10-20T03:25:17.060Z,17.83
2022-10-20T03:27:45.875Z,19.65
2022-10-20T03:30:14.775Z,18.30
2022-10-20T03:32:43.544Z,22.20
2022-10-20T03:35:12.376Z,22.40
2022-10-20T03:37:40.860Z,21.20
2022-10-20T03:40:11.951Z,30.42
2022-10-20T03:42:40.848Z,22.95
2022-10-20T03:45:12.651Z,25.17
2022-10-20T03:47:43.842Z,18.58
2022-10-20T03:50:12.637Z,25.95
2022-10-20T03:52:41.066Z,26.98
2022-10-20T03:55:11.586Z,27.30
2022-10-20T03:57:40.408Z,27.73
2022-10-20T04:00:10.196Z,27.92
2022-10-20T04:02:43.515Z,21.85
2022-10-20T04:05:13.862Z,25.05
2022-10-20T04:07:42.418Z,21.85
2022-10-20T04:10:13.522Z,25.50
2022-10-20T04:12:42.574Z,25.92
2022-10-20T04:15:11.968Z,25.42
2022-10-20T04:17:40.880Z,30.73
2022-10-20T04:20:10.291Z,33.03
2022-10-20T04:22:39.144Z,29.02
2022-10-20T04:25:09.390Z,26.98
2022-10-20T04:27:39.785Z,31.38
2022-10-20T04:30:10.286Z,26.23
2022-10-20T04:32:39.078Z,23.95
2022-10-20T04:35:08.738Z,27.02
2022-10-20T04:37:37.501Z,29.02
2022-10-20T04:40:07.590Z,28.50
2022-10-20T04:42:36.503Z,23.83
2022-10-20T04:45:07.722Z,29.60
2022-10-20T04:47:37.937Z,30.50
2022-10-20T04:50:07.570Z,32.25
2022-10-20T04:52:36.049Z,37.03
2022-10-20T04:55:05.217Z,28.05
2022-10-20T04:57:35.371Z,29.17
2022-10-20T05:00:08.160Z,31.70
2022-10-20T05:02:36.980Z,33.22
2022-10-20T05:05:06.534Z,24.95
2022-10-20T05:07:35.336Z,30.75
2022-10-20T05:10:04.726Z,37.27
2022-10-20T05:12:33.811Z,33.67
2022-10-20T05:15:03.741Z,33.97
2022-10-20T05:17:34.106Z,36.75
2022-10-20T05:20:03.314Z,38.55
2022-10-20T05:22:32.572Z,39.17
2022-10-20T05:25:24.428Z,37.42
2022-10-20T05:27:50.266Z,52.58
2022-10-20T05:30:19.225Z,46.72
2022-10-20T05:32:49.609Z,50.97
2022-10-20T05:35:18.464Z,50.33
2022-10-20T05:37:46.972Z,50.60
2022-10-20T05:40:15.943Z,51.47
2022-10-20T05:42:44.732Z,53.67
2022-10-20T05:45:13.573Z,51.15
2022-10-20T05:47:43.194Z,52.22
2022-10-20T05:50:13.668Z,44.72
2022-10-20T05:52:42.258Z,47.28
2022-10-20T05:55:11.712Z,40.78
2022-10-20T05:57:40.686Z,57.00
2022-10-20T06:00:11.344Z,44.30
2022-10-20T06:02:43.248Z,39.40
2022-10-20T06:05:13.459Z,37.17
2022-10-20T06:07:47.166Z,45.85
2022-10-20T06:10:16.282Z,34.95
2022-10-20T06:12:45.127Z,43.55
2022-10-20T06:15:14.002Z,35.35
2022-10-20T06:17:42.860Z,37.67
2022-10-20T06:20:13.689Z,35.35
2022-10-20T06:22:42.138Z,35.20
2022-10-20T06:25:11.173Z,34.97
2022-10-20T06:27:40.023Z,40.65
2022-10-20T06:30:10.010Z,118.85
2022-10-20T06:32:39.182Z,114.38
2022-10-20T06:35:08.672Z,185.10
2022-10-20T06:37:38.591Z,350.20
2022-10-20T06:42:37.101Z,94.32
2022-10-20T06:45:07.748Z,68.55
2022-10-20T06:47:36.833Z,81.95
2022-10-20T06:50:06.714Z,158.18
2022-10-20T06:52:35.909Z,76.60
2022-10-20T06:55:07.154Z,84.97
2022-10-20T06:57:36.014Z,38.25
2022-10-20T07:00:06.493Z,118.03
2022-10-20T07:02:35.740Z,118.72
2022-10-20T07:05:05.036Z,47.58
2022-10-20T07:10:11.929Z,54.25
2022-10-20T07:12:40.865Z,27.35
2022-10-20T07:15:10.480Z,58.58
2022-10-20T07:17:39.358Z,32.17
2022-10-20T07:20:09.138Z,24.40
2022-10-20T07:22:38.649Z,28.50
2022-10-20T07:25:09.398Z,32.83
2022-10-20T07:30:09.029Z,22.48
2022-10-20T07:32:38.233Z,29.03
2022-10-20T07:35:08.058Z,26.43
2022-10-20T07:37:37.015Z,23.10
2022-10-20T07:40:07.089Z,25.23
2022-10-20T07:42:36.187Z,24.85
2022-10-20T07:45:07.889Z,29.50
2022-10-20T07:47:38.624Z,32.58
2022-10-20T07:50:09.557Z,24.48
2022-10-20T07:52:38.884Z,19.03
2022-10-20T07:55:25.319Z,15.82
2022-10-20T07:57:57.481Z,15.27
2022-10-20T08:00:27.893Z,18.98
2022-10-20T08:02:56.800Z,20.23
2022-10-20T08:05:26.849Z,18.75
2022-10-20T08:07:55.468Z,25.67
2022-10-20T08:10:24.266Z,21.70
2022-10-20T08:12:53.154Z,27.42
2022-10-20T08:15:21.936Z,24.23
2022-10-20T08:17:52.102Z,31.92
2022-10-20T08:22:55.774Z,23.52
2022-10-20T08:25:24.851Z,26.45
2022-10-20T08:27:53.715Z,24.85
2022-10-20T08:30:24.228Z,19.20
2022-10-20T08:32:55.543Z,19.75
2022-10-20T08:35:24.408Z,20.30
2022-10-20T08:37:53.061Z,21.40
2022-10-20T08:40:24.522Z,18.25
2022-10-20T08:42:53.972Z,18.63
2022-10-20T08:45:24.565Z,18.67
2022-10-20T08:47:56.758Z,21.45
2022-10-20T08:50:27.968Z,24.77
2022-10-20T08:52:58.358Z,20.30
2022-10-20T08:55:29.933Z,19.33
2022-10-20T08:58:02.506Z,20.05
2022-10-20T09:00:32.468Z,15.57
2022-10-20T09:03:13.236Z,17.85
2022-10-20T09:05:43.939Z,16.45
2022-10-20T09:08:12.741Z,18.35
2022-10-20T09:10:43.458Z,20.33
2022-10-20T09:13:21.119Z,21.70
2022-10-20T09:15:50.535Z,16.08
2022-10-20T09:18:21.290Z,23.30
2022-10-20T09:20:54.032Z,12.30
2022-10-20T09:23:40.666Z,23.05
2022-10-20T09:26:24.765Z,24.10
2022-10-20T09:29:14.149Z,22.48
2022-10-20T09:31:45.801Z,29.00
2022-10-20T09:34:26.833Z,24.83
2022-10-20T09:36:59.468Z,26.33
2022-10-20T09:39:29.663Z,25.95
2022-10-20T09:42:04.154Z,22.33
2022-10-20T09:44:35.378Z,23.55
2022-10-20T09:47:06.646Z,24.05
2022-10-20T09:49:38.242Z,28.65
2022-10-20T09:52:18.694Z,34.35
2022-10-20T09:54:48.829Z,24.65
2022-10-20T09:57:20.612Z,25.38
2022-10-20T09:59:50.825Z,17.17
2022-10-20T10:02:31.828Z,17.60
2022-10-20T10:05:21.450Z,18.65
2022-10-20T10:08:00.722Z,17.88
2022-10-20T10:10:31.212Z,26.17
2022-10-20T10:13:04.028Z,16.55
2022-10-20T10:15:34.707Z,9.65
2022-10-20T10:18:13.591Z,21.38
2022-10-20T10:20:43.816Z,13.68
2022-10-20T10:23:22.156Z,12.98
2022-10-20T10:25:50.886Z,10.27
2022-10-20T10:28:29.906Z,5.95
2022-10-20T10:31:10.782Z,6.03
2022-10-20T10:33:39.577Z,7.35
2022-10-20T10:36:16.379Z,10.40
2022-10-20T10:38:45.278Z,5.43
2022-10-20T10:41:21.712Z,3.78
2022-10-20T10:43:54.703Z,5.32
2022-10-20T10:46:28.713Z,6.07
2022-10-20T10:49:08.705Z,9.38
2022-10-20T10:51:50.021Z,2.88
2022-10-20T10:54:29.673Z,2.30
2022-10-20T10:57:01.511Z,3.47
2022-10-20T10:59:32.841Z,3.33
2022-10-20T11:02:15.887Z,4.63
2022-10-20T11:05:06.560Z,2.45
2022-10-20T11:07:40.578Z,2.05
2022-10-20T11:10:12.375Z,2.17
2022-10-20T11:12:54.897Z,2.50
2022-10-20T11:15:51.283Z,2.72
2022-10-20T11:18:31.923Z,2.92
2022-10-20T11:21:09.405Z,2.40
2022-10-20T11:23:55.719Z,1.98
2022-10-20T11:26:29.110Z,3.25
2022-10-20T11:28:59.464Z,3.60
2022-10-20T11:31:33.967Z,3.17
2022-10-20T11:34:06.844Z,2.58
2022-10-20T11:36:39.220Z,3.08
2022-10-20T11:39:15.768Z,2.17
2022-10-20T11:41:49.455Z,1.92
2022-10-20T11:44:23.127Z,5.18
2022-10-20T11:46:54.559Z,1.60
2022-10-20T11:49:23.466Z,3.45
2022-10-20T11:52:12.960Z,2.53
2022-10-20T11:54:57.087Z,4.07
2022-10-20T11:57:33.139Z,2.20
2022-10-20T12:00:23.825Z,1.85
2022-10-20T12:03:27.527Z,4.78
2022-10-20T12:06:14.767Z,4.60
2022-10-20T12:09:01.082Z,3.25
2022-10-20T12:11:33.399Z,1.48
2022-10-20T12:14:08.476Z,3.15
2022-10-20T12:17:05.403Z,4.05
2022-10-20T12:19:35.753Z,3.53
2022-10-20T12:22:07.846Z,3.33
2022-10-20T12:24:39.198Z,5.05
2022-10-20T12:27:30.134Z,4.38
2022-10-20T12:30:04.338Z,2.85
2022-10-20T12:32:39.895Z,4.43
2022-10-20T12:35:31.974Z,2.20
2022-10-20T12:38:02.513Z,2.35
2022-10-20T12:40:33.708Z,1.83
2022-10-20T12:43:04.061Z,2.65
2022-10-20T12:45:39.102Z,2.92
2022-10-20T12:48:09.508Z,2.13
2022-10-20T12:50:40.518Z,8.80
2022-10-20T12:53:14.345Z,2.72
2022-10-20T12:55:42.920Z,3.35
2022-10-20T12:58:15.908Z,2.33
2022-10-20T13:01:06.926Z,4.75
2022-10-20T13:03:43.078Z,2.70
2022-10-20T13:06:43.201Z,2.65
2022-10-20T13:09:25.411Z,3.75
2022-10-20T13:12:06.173Z,2.25
2022-10-20T13:14:48.431Z,2.88
2022-10-20T13:17:24.249Z,1.90
2022-10-20T13:20:01.373Z,2.67
2022-10-20T13:22:48.579Z,7.38
2022-10-20T13:25:30.977Z,8.82
2022-10-20T13:28:18.540Z,3.70
2022-10-20T13:31:14.356Z,6.65
2022-10-20T13:34:05.317Z,8.05
2022-10-20T13:36:46.105Z,6.20
2022-10-20T13:39:19.237Z,6.57
2022-10-20T13:41:53.290Z,2.63
2022-10-20T13:44:31.901Z,7.97
2022-10-20T13:47:08.686Z,5.68
2022-10-20T13:49:52.987Z,5.90
2022-10-20T13:52:22.213Z,7.20
2022-10-20T13:54:52.425Z,6.15
2022-10-20T13:57:27.803Z,5.13
2022-10-20T13:59:58.068Z,6.55
2022-10-20T14:02:31.158Z,4.07
2022-10-20T14:05:07.858Z,7.97
2022-10-20T14:07:38.276Z,5.15
2022-10-20T14:12:37.120Z,2.38
2022-10-20T14:15:08.497Z,3.60
2022-10-20T14:17:40.811Z,3.13
2022-10-20T14:20:16.335Z,4.13
2022-10-20T14:22:45.434Z,5.47
2022-10-20T14:25:14.723Z,2.85
2022-10-20T14:27:44.494Z,5.35
2022-10-20T14:30:16.581Z,3.63
2022-10-20T14:32:49.885Z,5.60
2022-10-20T14:35:26.926Z,3.35
2022-10-20T14:37:59.744Z,3.28
2022-10-20T14:40:30.428Z,3.08
2022-10-20T14:43:01.539Z,10.13
2022-10-20T14:45:33.571Z,4.93
2022-10-20T14:48:03.900Z,2.88
2022-10-20T14:50:36.946Z,3.17
2022-10-20T14:53:19.430Z,7.13
2022-10-20T14:55:47.968Z,2.65
2022-10-20T14:58:38.455Z,3.10
2022-10-20T15:04:18.096Z,5.05
2022-10-20T15:06:47.196Z,8.75
2022-10-20T15:09:20.713Z,5.68
2022-10-20T15:11:49.686Z,3.60
2022-10-20T15:14:19.103Z,2.25
2022-10-20T15:16:48.724Z,4.00
2022-10-20T15:19:29.618Z,3.35
2022-10-20T15:22:01.590Z,2.83
2022-10-20T15:24:30.784Z,2.25
2022-10-20T15:27:00.188Z,2.88
2022-10-20T15:29:29.348Z,2.10
2022-10-20T15:31:58.321Z,7.63
2022-10-20T15:34:28.367Z,5.30
2022-10-20T15:36:58.052Z,7.95
2022-10-20T15:39:27.273Z,6.28
2022-10-20T15:41:56.110Z,4.38
2022-10-20T15:44:25.478Z,5.53
2022-10-20T15:46:54.662Z,5.10
2022-10-20T15:49:24.022Z,3.83
2022-10-20T15:51:54.432Z,4.93
2022-10-20T15:54:23.720Z,7.50
2022-10-20T15:56:52.899Z,5.90
2022-10-20T15:59:21.733Z,4.78
2022-10-20T16:01:50.180Z,5.40
2022-10-20T16:04:23.231Z,8.18
2022-10-20T16:06:57.705Z,6.28
2022-10-20T16:09:29.101Z,7.38
2022-10-20T16:11:58.049Z,10.20
2022-10-20T16:14:27.083Z,11.93
2022-10-20T16:16:55.492Z,10.90
2022-10-20T16:19:24.368Z,7.93
2022-10-20T16:21:54.726Z,12.43
2022-10-20T16:24:23.639Z,7.35
2022-10-20T16:26:52.908Z,13.27
2022-10-20T16:29:21.790Z,7.00
2022-10-20T16:31:50.438Z,8.30
2022-10-20T16:34:19.423Z,7.53
2022-10-20T16:36:48.303Z,10.07
2022-10-20T16:39:19.735Z,8.00
2022-10-20T16:41:48.742Z,11.18
2022-10-20T16:44:17.641Z,8.98
2022-10-20T16:46:46.224Z,6.53
2022-10-20T16:49:15.059Z,10.63
2022-10-20T16:51:44.048Z,7.65
2022-10-20T16:54:12.937Z,16.98
2022-10-20T16:56:43.355Z,14.93
2022-10-20T17:01:40.457Z,14.63
2022-10-20T17:04:09.345Z,15.88
2022-10-20T17:06:38.365Z,18.48
2022-10-20T17:09:07.978Z,16.90
2022-10-20T17:11:36.890Z,18.60
2022-10-20T17:14:07.148Z,20.05
2022-10-20T17:16:38.305Z,18.55
2022-10-20T17:19:07.713Z,18.92
2022-10-20T17:21:37.053Z,22.38
2022-10-20T17:24:06.253Z,17.83
2022-10-20T17:26:35.155Z,19.77
2022-10-20T17:29:04.280Z,18.15
2022-10-20T17:31:34.256Z,16.10
2022-10-20T17:36:32.342Z,21.10
2022-10-20T17:39:03.004Z,22.60
2022-10-20T17:41:31.964Z,28.23
2022-10-20T17:44:01.784Z,28.77
2022-10-20T17:46:30.670Z,23.40
2022-10-20T17:49:01.708Z,25.25
2022-10-20T17:51:33.708Z,36.10
2022-10-20T17:54:04.347Z,26.45
2022-10-20T17:56:35.892Z,21.97
2022-10-20T17:59:06.599Z,25.80
2022-10-20T18:01:38.660Z,26.33
2022-10-20T18:04:11.837Z,26.30
2022-10-20T18:06:40.966Z,41.55
2022-10-20T18:09:11.983Z,51.15
2022-10-20T18:11:42.335Z,57.70
2022-10-20T18:14:11.230Z,62.60
2022-10-20T18:16:40.733Z,58.95
2022-10-20T18:19:14.887Z,63.17
2022-10-20T18:21:44.402Z,61.35
2022-10-20T18:24:15.272Z,53.92
2022-10-20T18:26:44.946Z,53.42
2022-10-20T18:29:14.687Z,39.67
2022-10-20T18:31:44.378Z,43.58
2022-10-20T18:34:17.287Z,36.13
2022-10-20T18:36:46.416Z,35.88
2022-10-20T18:39:16.145Z,29.45
2022-10-20T18:41:46.504Z,36.47
2022-10-20T18:44:17.348Z,33.70
2022-10-20T18:46:47.062Z,28.60
2022-10-20T18:49:21.578Z,34.35
2022-10-20T18:51:50.510Z,33.75
2022-10-20T18:54:20.051Z,27.13
2022-10-20T18:56:48.937Z,30.57
2022-10-20T18:59:18.045Z,28.70
2022-10-20T19:01:48.356Z,31.33
2022-10-20T19:04:18.609Z,27.30
2022-10-20T19:06:48.636Z,31.40
2022-10-20T19:09:19.095Z,28.08
2022-10-20T19:14:17.001Z,29.15
2022-10-20T19:16:47.149Z,28.20
2022-10-20T19:19:18.708Z,31.02
2022-10-20T19:21:47.875Z,32.30
2022-10-20T19:24:18.614Z,32.75
2022-10-20T19:26:57.174Z,29.60
2022-10-20T19:32:07.625Z,28.65
2022-10-20T19:34:39.852Z,33.75
2022-10-20T19:37:09.563Z,28.75
2022-10-20T19:39:40.541Z,30.80
2022-10-20T19:42:10.177Z,34.88
2022-10-20T19:44:39.093Z,37.90
2022-10-20T19:47:08.187Z,44.47
2022-10-20T19:49:38.751Z,37.45
2022-10-20T19:52:08.295Z,39.00
2022-10-20T19:54:37.195Z,37.80
2022-10-20T19:57:06.397Z,42.08
2022-10-20T19:59:35.396Z,38.53
2022-10-20T20:02:04.612Z,35.90
2022-10-20T20:04:33.046Z,40.60
2022-10-20T20:07:06.493Z,39.67
2022-10-20T20:09:35.345Z,42.20
2022-10-20T20:12:06.751Z,42.40
2022-10-20T20:14:35.859Z,44.45
2022-10-20T20:17:07.342Z,39.00
2022-10-20T20:19:38.749Z,39.15
2022-10-20T20:22:09.340Z,31.92
2022-10-20T20:24:39.000Z,34.10
2022-10-20T20:27:07.925Z,33.17
2022-10-20T20:29:36.789Z,40.03
2022-10-20T20:32:05.917Z,37.72
2022-10-20T20:34:34.377Z,46.60
2022-10-20T20:37:03.209Z,47.70
2022-10-20T20:39:33.423Z,42.78
2022-10-20T20:42:02.183Z,46.55
2022-10-20T20:44:30.940Z,43.67
2022-10-20T20:46:59.837Z,41.13
2022-10-20T20:49:28.360Z,43.25
2022-10-20T20:51:57.462Z,43.75
2022-10-20T20:54:28.315Z,45.58
2022-10-20T20:57:01.138Z,41.63
2022-10-20T21:01:58.666Z,40.35
2022-10-20T21:04:30.646Z,40.05
2022-10-20T21:07:02.404Z,36.72
2022-10-20T21:09:32.378Z,32.63
2022-10-20T21:12:03.025Z,33.87
2022-10-20T21:14:32.303Z,34.25
2022-10-20T21:17:01.191Z,29.83
2022-10-20T21:19:29.925Z,28.88
2022-10-20T21:21:58.797Z,32.88
2022-10-20T21:24:27.886Z,32.58
2022-10-20T21:26:56.943Z,26.63
2022-10-20T21:29:27.306Z,31.27
2022-10-20T21:31:58.090Z,24.85
2022-10-20T21:34:27.448Z,29.33
2022-10-20T21:36:56.303Z,29.27
2022-10-20T21:39:25.174Z,30.42
2022-10-20T21:41:54.073Z,30.65
2022-10-20T21:44:23.008Z,32.45
2022-10-20T21:46:53.149Z,28.98
2022-10-20T21:49:25.442Z,33.72
2022-10-20T21:51:55.732Z,35.95
2022-10-20T21:54:25.801Z,35.92
2022-10-20T21:56:55.299Z,32.72
2022-10-20T21:59:25.260Z,35.33
2022-10-20T22:01:57.253Z,37.03
2022-10-20T22:04:27.926Z,36.35
2022-10-20T22:06:57.367Z,42.50
2022-10-20T22:09:29.929Z,40.03
2022-10-20T22:11:59.764Z,38.58
2022-10-20T22:14:30.665Z,46.17
2022-10-20T22:17:01.285Z,45.05
2022-10-20T22:19:29.832Z,41.30
2022-10-20T22:21:59.785Z,53.75
2022-10-20T22:24:30.688Z,41.22
2022-10-20T22:26:59.837Z,44.88
2022-10-20T22:29:28.879Z,42.42
2022-10-20T22:31:57.727Z,36.05
2022-10-20T22:34:27.744Z,41.67
2022-10-20T22:39:25.180Z,45.58
2022-10-20T22:41:53.930Z,40.28
2022-10-20T22:44:22.664Z,37.42
2022-10-20T22:46:51.149Z,34.63
2022-10-20T22:49:19.981Z,39.22
2022-10-20T22:51:50.238Z,39.80
2022-10-20T22:56:52.220Z,39.45
2022-10-20T22:59:21.228Z,42.80
2022-10-20T23:01:50.082Z,34.63
2022-10-20T23:04:18.980Z,46.47
2022-10-20T23:06:49.194Z,45.88
2022-10-20T23:11:46.676Z,45.38
2022-10-20T23:14:15.522Z,43.28
2022-10-20T23:16:44.316Z,41.00
2022-10-20T23:19:13.185Z,46.72
2022-10-20T23:21:42.013Z,37.50
2022-10-20T23:24:12.303Z,45.72
2022-10-20T23:29:09.672Z,39.15
2022-10-20T23:31:38.161Z,44.67
2022-10-20T23:34:06.935Z,47.83
2022-10-20T23:36:39.020Z,39.13
2022-10-20T23:39:08.407Z,44.85
2022-10-20T23:41:38.688Z,41.15
2022-10-20T23:46:35.739Z,41.28
2022-10-20T23:49:04.995Z,48.65
2022-10-20T23:51:34.260Z,44.65
2022-10-20T23:54:03.020Z,42.85
2022-10-20T23:56:31.835Z,43.10
2022-10-20T23:59:01.966Z,46.90
